sensor_id;sensor_type;location;lat;lon;timestamp;pressure;altitude;pressure_sealevel;temperature;humidity
75699;BME280;64313;51.018;13.742;2022-12-08T00:00:35;99116.44;;;3.20;77.93
75699;BME280;64313;51.018;13.742;2022-12-08T00:03:00;99109.38;;;3.20;77.81
75699;BME280;64313;51.018;13.742;2022-12-08T00:05:25;99117.31;;;3.20;77.71
75699;BME280;64313;51.018;13.742;2022-12-08T00:08:09;99105.88;;;3.20;77.67
75699;BME280;64313;51.018;13.742;2022-12-08T00:10:53;99109.38;;;3.20;77.37
75699;BME280;64313;51.018;13.742;2022-12-08T00:13:18;99106.88;;;3.19;77.65
75699;BME280;64313;51.018;13.742;2022-12-08T00:15:44;99107.56;;;3.21;77.87
75699;BME280;64313;51.018;13.742;2022-12-08T00:18:09;99104.09;;;3.20;77.52
75699;BME280;64313;51.018;13.742;2022-12-08T00:20:34;99110.00;;;3.22;77.59
75699;BME280;64313;51.018;13.742;2022-12-08T00:23:00;99111.84;;;3.22;77.60
75699;BME280;64313;51.018;13.742;2022-12-08T00:25:25;99102.09;;;3.22;77.60
75699;BME280;64313;51.018;13.742;2022-12-08T00:27:50;99106.56;;;3.22;77.31
75699;BME280;64313;51.018;13.742;2022-12-08T00:30:16;99110.00;;;3.22;77.86
75699;BME280;64313;51.018;13.742;2022-12-08T00:32:41;99099.44;;;3.22;77.57
75699;BME280;64313;51.018;13.742;2022-12-08T00:35:07;99108.38;;;3.21;78.15
75699;BME280;64313;51.018;13.742;2022-12-08T00:37:32;99109.38;;;3.20;77.67
75699;BME280;64313;51.018;13.742;2022-12-08T00:39:57;99106.06;;;3.18;77.45
75699;BME280;64313;51.018;13.742;2022-12-08T00:42:23;99105.06;;;3.19;77.82
75699;BME280;64313;51.018;13.742;2022-12-08T00:44:48;99100.59;;;3.20;77.53
75699;BME280;64313;51.018;13.742;2022-12-08T00:47:13;99101.47;;;3.20;77.85
75699;BME280;64313;51.018;13.742;2022-12-08T00:49:39;99102.44;;;3.19;77.73
75699;BME280;64313;51.018;13.742;2022-12-08T00:52:05;99095.31;;;3.20;77.76
75699;BME280;64313;51.018;13.742;2022-12-08T00:54:30;99098.81;;;3.20;77.26
75699;BME280;64313;51.018;13.742;2022-12-08T00:56:56;99097.16;;;3.19;77.82
75699;BME280;64313;51.018;13.742;2022-12-08T00:59:21;99097.16;;;3.19;77.88
75699;BME280;64313;51.018;13.742;2022-12-08T01:01:47;99100.59;;;3.20;77.39
75699;BME280;64313;51.018;13.742;2022-12-08T01:04:15;99099.78;;;3.19;77.48
75699;BME280;64313;51.018;13.742;2022-12-08T01:06:41;99096.31;;;3.19;77.83
75699;BME280;64313;51.018;13.742;2022-12-08T01:09:07;99094.50;;;3.19;77.89
75699;BME280;64313;51.018;13.742;2022-12-08T01:11:34;99099.78;;;3.19;77.39
75699;BME280;64313;51.018;13.742;2022-12-08T01:13:59;99100.78;;;3.18;78.02
75699;BME280;64313;51.018;13.742;2022-12-08T01:16:30;99098.16;;;3.18;77.59
75699;BME280;64313;51.018;13.742;2022-12-08T01:18:57;99098.97;;;3.19;77.71
75699;BME280;64313;51.018;13.742;2022-12-08T01:21:22;99092.06;;;3.18;77.65
75699;BME280;64313;51.018;13.742;2022-12-08T01:23:48;99092.22;;;3.16;78.13
75699;BME280;64313;51.018;13.742;2022-12-08T01:26:16;99093.03;;;3.17;77.24
75699;BME280;64313;51.018;13.742;2022-12-08T01:28:42;99086.94;;;3.16;77.65
75699;BME280;64313;51.018;13.742;2022-12-08T01:31:18;99085.28;;;3.15;77.72
75699;BME280;64313;51.018;13.742;2022-12-08T01:33:44;99096.00;;;3.14;77.21
75699;BME280;64313;51.018;13.742;2022-12-08T01:36:21;99094.19;;;3.14;77.48
75699;BME280;64313;51.018;13.742;2022-12-08T01:38:48;99089.91;;;3.13;77.32
75699;BME280;64313;51.018;13.742;2022-12-08T01:41:15;99079.50;;;3.12;77.64
75699;BME280;64313;51.018;13.742;2022-12-08T01:46:24;99076.03;;;3.11;78.04
75699;BME280;64313;51.018;13.742;2022-12-08T01:49:17;99071.56;;;3.12;78.32
75699;BME280;64313;51.018;13.742;2022-12-08T01:51:51;99080.50;;;3.11;78.29
75699;BME280;64313;51.018;13.742;2022-12-08T01:54:21;99076.84;;;3.12;77.98
75699;BME280;64313;51.018;13.742;2022-12-08T01:57:00;99082.13;;;3.12;77.74
75699;BME280;64313;51.018;13.742;2022-12-08T01:59:27;99078.69;;;3.11;78.08
75699;BME280;64313;51.018;13.742;2022-12-08T02:01:54;99068.28;;;3.10;77.54
75699;BME280;64313;51.018;13.742;2022-12-08T02:04:20;99070.09;;;3.09;78.00
75699;BME280;64313;51.018;13.742;2022-12-08T02:06:46;99066.63;;;3.09;77.91
75699;BME280;64313;51.018;13.742;2022-12-08T02:09:13;99068.47;;;3.08;78.22
75699;BME280;64313;51.018;13.742;2022-12-08T02:11:38;99067.66;;;3.08;77.68
75699;BME280;64313;51.018;13.742;2022-12-08T02:14:06;99058.06;;;3.07;77.55
75699;BME280;64313;51.018;13.742;2022-12-08T02:19:36;99054.28;;;3.01;77.27
75699;BME280;64313;51.018;13.742;2022-12-08T02:24:38;99045.88;;;2.97;77.48
75699;BME280;64313;51.018;13.742;2022-12-08T02:35:33;99039.28;;;2.93;77.92
75699;BME280;64313;51.018;13.742;2022-12-08T02:40:56;99043.38;;;2.96;77.38
75699;BME280;64313;51.018;13.742;2022-12-08T02:43:28;99041.75;;;2.95;77.65
75699;BME280;64313;51.018;13.742;2022-12-08T02:46:04;99042.72;;;2.94;77.53
75699;BME280;64313;51.018;13.742;2022-12-08T02:48:32;99039.44;;;2.92;77.14
75699;BME280;64313;51.018;13.742;2022-12-08T02:50:58;99039.28;;;2.93;77.61
75699;BME280;64313;51.018;13.742;2022-12-08T02:53:27;99035.81;;;2.93;77.64
75699;BME280;64313;51.018;13.742;2022-12-08T02:56:20;99032.16;;;2.94;77.42
75699;BME280;64313;51.018;13.742;2022-12-08T02:59:09;99021.59;;;2.94;77.48
75699;BME280;64313;51.018;13.742;2022-12-08T03:02:07;99020.78;;;2.93;77.59
75699;BME280;64313;51.018;13.742;2022-12-08T03:04:58;99018.00;;;2.95;77.29
75699;BME280;64313;51.018;13.742;2022-12-08T03:07:59;99016.34;;;2.94;76.99
75699;BME280;64313;51.018;13.742;2022-12-08T03:10:40;99018.00;;;2.95;77.45
75699;BME280;64313;51.018;13.742;2022-12-08T03:13:16;99024.91;;;2.96;77.48
75699;BME280;64313;51.018;13.742;2022-12-08T03:15:47;99013.34;;;2.97;77.63
75699;BME280;64313;51.018;13.742;2022-12-08T03:18:16;99020.28;;;2.98;77.32
75699;BME280;64313;51.018;13.742;2022-12-08T03:20:44;99021.78;;;3.00;77.16
75699;BME280;64313;51.018;13.742;2022-12-08T03:23:12;99013.03;;;3.00;77.26
75699;BME280;64313;51.018;13.742;2022-12-08T03:25:43;99005.94;;;3.00;77.19
75699;BME280;64313;51.018;13.742;2022-12-08T03:28:12;99013.19;;;2.98;77.16
75699;BME280;64313;51.018;13.742;2022-12-08T03:30:39;99015.03;;;2.98;77.18
75699;BME280;64313;51.018;13.742;2022-12-08T03:33:22;99011.56;;;2.97;76.99
75699;BME280;64313;51.018;13.742;2022-12-08T03:35:49;99005.44;;;2.97;77.03
75699;BME280;64313;51.018;13.742;2022-12-08T03:38:16;99009.75;;;2.98;77.04
75699;BME280;64313;51.018;13.742;2022-12-08T03:40:41;99001.81;;;2.98;77.13
75699;BME280;64313;51.018;13.742;2022-12-08T03:43:07;99000.00;;;2.98;76.66
75699;BME280;64313;51.018;13.742;2022-12-08T03:45:32;99001.63;;;2.99;76.96
75699;BME280;64313;51.018;13.742;2022-12-08T03:47:58;98988.44;;;2.99;76.98
75699;BME280;64313;51.018;13.742;2022-12-08T03:50:23;98987.63;;;2.99;77.04
75699;BME280;64313;51.018;13.742;2022-12-08T03:52:49;98990.09;;;3.00;77.22
75699;BME280;64313;51.018;13.742;2022-12-08T03:55:15;98987.63;;;2.99;76.74
75699;BME280;64313;51.018;13.742;2022-12-08T03:57:40;98984.16;;;2.98;77.00
75699;BME280;64313;51.018;13.742;2022-12-08T04:00:08;98988.44;;;2.99;77.48
75699;BME280;64313;51.018;13.742;2022-12-08T04:02:35;98987.63;;;2.99;76.95
75699;BME280;64313;51.018;13.742;2022-12-08T04:05:01;98980.50;;;2.99;76.78
75699;BME280;64313;51.018;13.742;2022-12-08T04:07:26;98981.38;;;3.00;77.17
75699;BME280;64313;51.018;13.742;2022-12-08T04:09:51;98985.47;;;3.02;77.17
75699;BME280;64313;51.018;13.742;2022-12-08T04:12:17;98978.38;;;3.03;77.04
75699;BME280;64313;51.018;13.742;2022-12-08T04:14:42;98978.38;;;3.03;77.24
75699;BME280;64313;51.018;13.742;2022-12-08T04:17:07;98976.72;;;3.02;77.47
75699;BME280;64313;51.018;13.742;2022-12-08T04:19:33;98978.03;;;3.06;77.20
75699;BME280;64313;51.018;13.742;2022-12-08T04:21:58;98979.03;;;3.05;77.54
75699;BME280;64313;51.018;13.742;2022-12-08T04:24:24;98971.13;;;3.05;77.11
75699;BME280;64313;51.018;13.742;2022-12-08T04:26:49;98967.00;;;3.02;77.39
75699;BME280;64313;51.018;13.742;2022-12-08T04:29:15;98971.28;;;3.03;77.60
75699;BME280;64313;51.018;13.742;2022-12-08T04:31:40;98962.53;;;3.03;77.40
75699;BME280;64313;51.018;13.742;2022-12-08T04:34:06;98957.41;;;3.01;77.49
75699;BME280;64313;51.018;13.742;2022-12-08T04:36:32;98955.59;;;3.02;77.54
75699;BME280;64313;51.018;13.742;2022-12-08T04:38:57;98955.44;;;3.03;77.64
75699;BME280;64313;51.018;13.742;2022-12-08T04:41:22;98957.06;;;3.04;77.28
75699;BME280;64313;51.018;13.742;2022-12-08T04:43:48;98958.06;;;3.03;77.46
75699;BME280;64313;51.018;13.742;2022-12-08T04:46:13;98956.91;;;3.06;77.57
75699;BME280;64313;51.018;13.742;2022-12-08T04:48:39;98959.91;;;3.03;77.23
75699;BME280;64313;51.018;13.742;2022-12-08T04:51:05;98949.34;;;3.03;77.64
75699;BME280;64313;51.018;13.742;2022-12-08T04:53:31;98947.50;;;3.03;77.57
75699;BME280;64313;51.018;13.742;2022-12-08T04:55:56;98946.03;;;3.01;77.60
75699;BME280;64313;51.018;13.742;2022-12-08T04:58:22;98947.66;;;3.02;78.57
75699;BME280;64313;51.018;13.742;2022-12-08T05:00:48;98944.22;;;3.01;78.33
75699;BME280;64313;51.018;13.742;2022-12-08T05:03:13;98940.91;;;2.99;78.34
75699;BME280;64313;51.018;13.742;2022-12-08T05:05:40;98950.66;;;2.99;78.42
75699;BME280;64313;51.018;13.742;2022-12-08T05:08:05;98953.47;;;2.97;78.47
75699;BME280;64313;51.018;13.742;2022-12-08T05:10:31;98946.38;;;2.98;78.69
75699;BME280;64313;51.018;13.742;2022-12-08T05:12:58;98945.38;;;2.99;78.13
75699;BME280;64313;51.018;13.742;2022-12-08T05:15:23;98940.44;;;2.96;78.46
75699;BME280;64313;51.018;13.742;2022-12-08T05:17:49;98938.63;;;2.96;78.67
75699;BME280;64313;51.018;13.742;2022-12-08T05:20:14;98938.28;;;2.99;78.15
75699;BME280;64313;51.018;13.742;2022-12-08T05:22:39;98931.38;;;2.98;78.12
75699;BME280;64313;51.018;13.742;2022-12-08T05:25:05;98932.19;;;2.99;78.51
75699;BME280;64313;51.018;13.742;2022-12-08T05:27:30;98931.38;;;2.98;78.49
75699;BME280;64313;51.018;13.742;2022-12-08T05:29:55;98926.09;;;2.98;78.76
75699;BME280;64313;51.018;13.742;2022-12-08T05:32:21;98926.91;;;2.99;78.81
75699;BME280;64313;51.018;13.742;2022-12-08T05:34:46;98932.03;;;3.00;78.70
75699;BME280;64313;51.018;13.742;2022-12-08T05:37:11;98935.47;;;3.01;78.57
75699;BME280;64313;51.018;13.742;2022-12-08T05:39:37;98929.19;;;3.02;78.51
75699;BME280;64313;51.018;13.742;2022-12-08T05:42:02;98930.03;;;3.02;78.61
75699;BME280;64313;51.018;13.742;2022-12-08T05:44:28;98928.03;;;3.04;78.14
75699;BME280;64313;51.018;13.742;2022-12-08T05:46:53;98925.38;;;3.04;78.19
75699;BME280;64313;51.018;13.742;2022-12-08T05:49:18;98919.47;;;3.02;77.96
75699;BME280;64313;51.018;13.742;2022-12-08T05:51:44;98925.72;;;3.01;78.23
75699;BME280;64313;51.018;13.742;2022-12-08T05:54:09;98922.13;;;3.02;78.29
75699;BME280;64313;51.018;13.742;2022-12-08T05:56:35;98921.13;;;3.03;78.19
75699;BME280;64313;51.018;13.742;2022-12-08T05:59:01;98921.13;;;3.03;77.96
75699;BME280;64313;51.018;13.742;2022-12-08T06:01:30;98930.03;;;3.02;77.81
75699;BME280;64313;51.018;13.742;2022-12-08T06:04:00;98925.94;;;3.00;78.69
75699;BME280;64313;51.018;13.742;2022-12-08T06:06:26;98925.94;;;3.00;78.47
75699;BME280;64313;51.018;13.742;2022-12-08T06:08:51;98919.63;;;3.01;77.85
75699;BME280;64313;51.018;13.742;2022-12-08T06:11:25;98930.34;;;2.99;78.03
75699;BME280;64313;51.018;13.742;2022-12-08T06:13:51;98935.63;;;2.99;77.95
75699;BME280;64313;51.018;13.742;2022-12-08T06:16:17;98941.75;;;3.00;78.03
75699;BME280;64313;51.018;13.742;2022-12-08T06:18:43;98938.94;;;3.01;78.33
75699;BME280;64313;51.018;13.742;2022-12-08T06:21:10;98931.84;;;3.02;78.25
75699;BME280;64313;51.018;13.742;2022-12-08T06:23:35;98941.75;;;3.00;78.16
75699;BME280;64313;51.018;13.742;2022-12-08T06:26:07;98950.66;;;2.99;77.91
75699;BME280;64313;51.018;13.742;2022-12-08T06:28:33;98945.72;;;2.96;77.73
75699;BME280;64313;51.018;13.742;2022-12-08T06:30:59;98946.72;;;2.95;77.74
75699;BME280;64313;51.018;13.742;2022-12-08T06:33:30;98953.81;;;2.94;78.26
75699;BME280;64313;51.018;13.742;2022-12-08T06:35:57;98951.00;;;2.96;77.94
75699;BME280;64313;51.018;13.742;2022-12-08T06:38:23;98944.09;;;2.95;78.01
75699;BME280;64313;51.018;13.742;2022-12-08T06:40:52;98950.66;;;2.99;78.05
75699;BME280;64313;51.018;13.742;2022-12-08T06:43:18;98946.38;;;2.98;78.10
75699;BME280;64313;51.018;13.742;2022-12-08T06:45:44;98947.19;;;2.98;77.95
75699;BME280;64313;51.018;13.742;2022-12-08T06:48:09;98950.66;;;2.99;77.86
75699;BME280;64313;51.018;13.742;2022-12-08T06:50:34;98952.31;;;3.00;78.17
75699;BME280;64313;51.018;13.742;2022-12-08T06:53:00;98940.91;;;2.99;77.66
75699;BME280;64313;51.018;13.742;2022-12-08T06:55:25;98946.84;;;3.01;78.09
75699;BME280;64313;51.018;13.742;2022-12-08T06:57:52;98949.00;;;3.06;77.83
75699;BME280;64313;51.018;13.742;2022-12-08T07:00:17;98955.28;;;3.05;77.81
75699;BME280;64313;51.018;13.742;2022-12-08T07:02:42;98950.00;;;3.05;77.87
75699;BME280;64313;51.018;13.742;2022-12-08T07:05:08;98955.28;;;3.05;78.25
75699;BME280;64313;51.018;13.742;2022-12-08T07:07:34;98955.28;;;3.05;78.10
75699;BME280;64313;51.018;13.742;2022-12-08T07:10:00;98962.34;;;3.04;78.87
75699;BME280;64313;51.018;13.742;2022-12-08T07:12:25;98956.56;;;3.09;78.06
75699;BME280;64313;51.018;13.742;2022-12-08T07:14:50;98960.03;;;3.10;77.94
75699;BME280;64313;51.018;13.742;2022-12-08T07:17:16;98962.84;;;3.08;78.09
75699;BME280;64313;51.018;13.742;2022-12-08T07:19:41;98959.41;;;3.08;78.46
75699;BME280;64313;51.018;13.742;2022-12-08T07:22:06;98954.28;;;3.06;78.33
75699;BME280;64313;51.018;13.742;2022-12-08T07:24:32;98959.41;;;3.08;78.35
75699;BME280;64313;51.018;13.742;2022-12-08T07:26:57;98964.69;;;3.08;78.50
75699;BME280;64313;51.018;13.742;2022-12-08T07:29:22;98953.25;;;3.07;78.47
75699;BME280;64313;51.018;13.742;2022-12-08T07:31:48;98945.19;;;3.09;78.57
75699;BME280;64313;51.018;13.742;2022-12-08T07:34:13;98946.00;;;3.09;78.50
75699;BME280;64313;51.018;13.742;2022-12-08T07:36:38;98942.53;;;3.09;78.30
75699;BME280;64313;51.018;13.742;2022-12-08T07:39:04;98946.34;;;3.06;78.74
75699;BME280;64313;51.018;13.742;2022-12-08T07:41:29;98942.06;;;3.05;78.63
75699;BME280;64313;51.018;13.742;2022-12-08T07:43:55;98946.34;;;3.06;78.53
75699;BME280;64313;51.018;13.742;2022-12-08T07:46:22;98943.06;;;3.04;78.88
75699;BME280;64313;51.018;13.742;2022-12-08T07:48:48;98945.53;;;3.06;78.93
75699;BME280;64313;51.018;13.742;2022-12-08T07:51:14;98951.63;;;3.06;78.74
75699;BME280;64313;51.018;13.742;2022-12-08T07:53:44;98946.34;;;3.06;78.87
75699;BME280;64313;51.018;13.742;2022-12-08T07:56:11;98948.34;;;3.04;78.85
75699;BME280;64313;51.018;13.742;2022-12-08T07:58:37;98950.97;;;3.04;78.72
75699;BME280;64313;51.018;13.742;2022-12-08T08:01:04;98946.69;;;3.03;78.94
75699;BME280;64313;51.018;13.742;2022-12-08T08:03:29;98952.94;;;3.02;78.90
75699;BME280;64313;51.018;13.742;2022-12-08T08:06:01;98947.84;;;3.00;78.69
75699;BME280;64313;51.018;13.742;2022-12-08T08:08:27;98956.44;;;3.02;78.84
75699;BME280;64313;51.018;13.742;2022-12-08T08:10:52;98956.91;;;3.06;78.91
75699;BME280;64313;51.018;13.742;2022-12-08T08:13:17;98959.56;;;3.06;78.52
75699;BME280;64313;51.018;13.742;2022-12-08T08:15:43;98960.56;;;3.05;78.73
75699;BME280;64313;51.018;13.742;2022-12-08T08:18:08;98967.63;;;3.04;78.82
75699;BME280;64313;51.018;13.742;2022-12-08T08:20:33;98962.19;;;3.06;78.42
75699;BME280;64313;51.018;13.742;2022-12-08T08:22:59;98969.94;;;3.08;78.70
75699;BME280;64313;51.018;13.742;2022-12-08T08:25:25;98964.69;;;3.08;78.29
75699;BME280;64313;51.018;13.742;2022-12-08T08:27:50;98970.78;;;3.08;78.38
75699;BME280;64313;51.018;13.742;2022-12-08T08:30:16;98963.50;;;3.10;78.53
75699;BME280;64313;51.018;13.742;2022-12-08T08:32:42;98962.50;;;3.11;78.78
75699;BME280;64313;51.018;13.742;2022-12-08T08:35:07;98960.69;;;3.12;78.67
75699;BME280;64313;51.018;13.742;2022-12-08T08:37:33;98964.13;;;3.12;78.29
75699;BME280;64313;51.018;13.742;2022-12-08T08:39:58;98965.63;;;3.15;78.14
75699;BME280;64313;51.018;13.742;2022-12-08T08:42:24;98955.25;;;3.13;78.13
75699;BME280;64313;51.018;13.742;2022-12-08T08:44:50;98957.88;;;3.13;78.49
75699;BME280;64313;51.018;13.742;2022-12-08T08:47:15;98952.59;;;3.13;78.06
75699;BME280;64313;51.018;13.742;2022-12-08T08:49:41;98955.06;;;3.15;78.60
75699;BME280;64313;51.018;13.742;2022-12-08T08:52:06;98962.81;;;3.16;78.19
75699;BME280;64313;51.018;13.742;2022-12-08T08:54:32;98955.91;;;3.15;78.09
75699;BME280;64313;51.018;13.742;2022-12-08T08:56:58;98960.19;;;3.16;78.06
75699;BME280;64313;51.018;13.742;2022-12-08T08:59:25;98959.34;;;3.16;78.02
75699;BME280;64313;51.018;13.742;2022-12-08T09:01:51;98953.88;;;3.17;77.83
75699;BME280;64313;51.018;13.742;2022-12-08T09:04:16;98962.81;;;3.16;77.60
75699;BME280;64313;51.018;13.742;2022-12-08T09:06:41;98969.91;;;3.16;77.79
75699;BME280;64313;51.018;13.742;2022-12-08T09:09:10;98975.00;;;3.17;77.79
75699;BME280;64313;51.018;13.742;2022-12-08T09:11:36;98976.84;;;3.17;77.99
75699;BME280;64313;51.018;13.742;2022-12-08T09:14:01;98974.19;;;3.17;77.93
75699;BME280;64313;51.018;13.742;2022-12-08T09:16:27;98975.69;;;3.19;78.04
75699;BME280;64313;51.018;13.742;2022-12-08T09:18:52;98972.06;;;3.20;77.86
75699;BME280;64313;51.018;13.742;2022-12-08T09:21:20;98984.25;;;3.21;77.37
75699;BME280;64313;51.018;13.742;2022-12-08T09:23:48;98973.69;;;3.21;77.44
75699;BME280;64313;51.018;13.742;2022-12-08T09:26:14;98973.53;;;3.23;77.54
75699;BME280;64313;51.018;13.742;2022-12-08T09:28:39;98975.16;;;3.24;77.54
75699;BME280;64313;51.018;13.742;2022-12-08T09:31:13;98974.16;;;3.25;77.81
75699;BME280;64313;51.018;13.742;2022-12-08T09:33:38;98970.03;;;3.31;77.49
75699;BME280;64313;51.018;13.742;2022-12-08T09:36:04;98961.09;;;3.32;77.12
75699;BME280;64313;51.018;13.742;2022-12-08T09:38:29;98959.28;;;3.32;77.18
75699;BME280;64313;51.018;13.742;2022-12-08T09:40:55;98967.72;;;3.36;76.97
75699;BME280;64313;51.018;13.742;2022-12-08T09:44:19;98960.44;;;3.38;77.02
75699;BME280;64313;51.018;13.742;2022-12-08T09:46:32;98951.81;;;3.44;77.30
75699;BME280;64313;51.018;13.742;2022-12-08T09:48:59;98944.03;;;3.51;77.26
75699;BME280;64313;51.018;13.742;2022-12-08T09:51:31;98950.44;;;3.56;77.00
75699;BME280;64313;51.018;13.742;2022-12-08T09:54:14;98941.47;;;3.65;77.18
75699;BME280;64313;51.018;13.742;2022-12-08T09:56:41;98938.78;;;3.74;76.97
75699;BME280;64313;51.018;13.742;2022-12-08T09:59:22;98932.44;;;3.83;76.78
75699;BME280;64313;51.018;13.742;2022-12-08T10:01:49;98927.94;;;3.92;76.31
75699;BME280;64313;51.018;13.742;2022-12-08T10:04:36;98925.06;;;4.01;75.83
75699;BME280;64313;51.018;13.742;2022-12-08T10:09:39;98917.34;;;4.15;75.82
75699;BME280;64313;51.018;13.742;2022-12-08T10:12:40;98915.28;;;4.25;74.78
75699;BME280;64313;51.018;13.742;2022-12-08T10:17:53;98911.03;;;4.39;74.92
75699;BME280;64313;51.018;13.742;2022-12-08T10:20:26;98912.59;;;4.48;74.44
75699;BME280;64313;51.018;13.742;2022-12-08T10:23:06;98909.03;;;4.55;74.09
75699;BME280;64313;51.018;13.742;2022-12-08T10:26:05;98903.22;;;4.60;73.00
75699;BME280;64313;51.018;13.742;2022-12-08T10:28:33;98908.78;;;4.65;73.47
75699;BME280;64313;51.018;13.742;2022-12-08T10:30:59;98905.16;;;4.66;72.47
75699;BME280;64313;51.018;13.742;2022-12-08T10:33:24;98904.94;;;4.68;73.24
75699;BME280;64313;51.018;13.742;2022-12-08T10:35:55;98906.41;;;4.70;72.09
75699;BME280;64313;51.018;13.742;2022-12-08T10:38:29;98905.44;;;4.71;72.50
75699;BME280;64313;51.018;13.742;2022-12-08T10:41:13;98906.41;;;4.70;72.64
75699;BME280;64313;51.018;13.742;2022-12-08T10:43:45;98902.94;;;4.70;72.63
75699;BME280;64313;51.018;13.742;2022-12-08T10:46:15;98903.97;;;4.69;71.72
75699;BME280;64313;51.018;13.742;2022-12-08T10:48:54;98899.66;;;4.68;71.68
75699;BME280;64313;51.018;13.742;2022-12-08T10:51:27;98895.19;;;4.68;72.53
75699;BME280;64313;51.018;13.742;2022-12-08T10:53:53;98887.44;;;4.67;72.24
75699;BME280;64313;51.018;13.742;2022-12-08T10:56:24;98883.78;;;4.68;72.77
75699;BME280;64313;51.018;13.742;2022-12-08T10:59:11;98888.69;;;4.71;72.60
75699;BME280;64313;51.018;13.742;2022-12-08T11:01:38;98877.94;;;4.72;72.69
75699;BME280;64313;51.018;13.742;2022-12-08T11:04:11;98872.91;;;4.77;72.38
75699;BME280;64313;51.018;13.742;2022-12-08T11:06:38;98880.31;;;4.82;72.04
75699;BME280;64313;51.018;13.742;2022-12-08T11:14:28;98877.13;;;5.02;71.48
75699;BME280;64313;51.018;13.742;2022-12-08T11:17:06;98871.25;;;5.06;71.44
75699;BME280;64313;51.018;13.742;2022-12-08T11:19:40;98874.81;;;5.13;70.75
75699;BME280;64313;51.018;13.742;2022-12-08T11:22:26;98865.28;;;5.19;70.18
75699;BME280;64313;51.018;13.742;2022-12-08T11:25:10;98869.22;;;5.23;69.58
75699;BME280;64313;51.018;13.742;2022-12-08T11:27:38;98858.44;;;5.25;68.96
75699;BME280;64313;51.018;13.742;2022-12-08T11:30:20;98852.34;;;5.24;69.30
75699;BME280;64313;51.018;13.742;2022-12-08T11:32:48;98854.13;;;5.24;68.09
75699;BME280;64313;51.018;13.742;2022-12-08T11:35:26;98850.66;;;5.23;68.63
75699;BME280;64313;51.018;13.742;2022-12-08T11:37:57;98847.59;;;5.19;68.63
75699;BME280;64313;51.018;13.742;2022-12-08T11:40:37;98844.47;;;5.16;68.55
75699;BME280;64313;51.018;13.742;2022-12-08T11:43:14;98845.13;;;5.18;68.17
75699;BME280;64313;51.018;13.742;2022-12-08T11:45:41;98841.19;;;5.14;68.59
75699;BME280;64313;51.018;13.742;2022-12-08T11:48:15;98853.81;;;5.12;68.61
75699;BME280;64313;51.018;13.742;2022-12-08T11:50:54;98850.53;;;5.10;68.67
75699;BME280;64313;51.018;13.742;2022-12-08T11:53:32;98845.41;;;5.08;68.91
75699;BME280;64313;51.018;13.742;2022-12-08T11:56:05;98841.75;;;5.09;68.28
75699;BME280;64313;51.018;13.742;2022-12-08T11:58:40;98846.03;;;5.10;69.06
75699;BME280;64313;51.018;13.742;2022-12-08T12:01:16;98846.03;;;5.10;69.10
75699;BME280;64313;51.018;13.742;2022-12-08T12:03:46;98845.03;;;5.11;68.21
75699;BME280;64313;51.018;13.742;2022-12-08T12:06:29;98839.72;;;5.11;68.70
75699;BME280;64313;51.018;13.742;2022-12-08T12:11:44;98838.53;;;5.14;68.35
75699;BME280;64313;51.018;13.742;2022-12-08T12:17:39;98838.78;;;5.19;66.35
75699;BME280;64313;51.018;13.742;2022-12-08T12:20:30;98832.50;;;5.20;67.42
75699;BME280;64313;51.018;13.742;2022-12-08T12:23:11;98835.16;;;5.20;66.94
75699;BME280;64313;51.018;13.742;2022-12-08T12:25:55;98820.53;;;5.24;66.53
75699;BME280;64313;51.018;13.742;2022-12-08T12:28:25;98825.00;;;5.24;66.47
75699;BME280;64313;51.018;13.742;2022-12-08T12:31:07;98830.13;;;5.25;65.76
75699;BME280;64313;51.018;13.742;2022-12-08T12:33:34;98821.16;;;5.26;66.02
75699;BME280;64313;51.018;13.742;2022-12-08T12:36:05;98822.81;;;5.27;66.41
75699;BME280;64313;51.018;13.742;2022-12-08T12:38:42;98824.44;;;5.28;65.85
75699;BME280;64313;51.018;13.742;2022-12-08T12:41:43;98827.91;;;5.29;66.08
75699;BME280;64313;51.018;13.742;2022-12-08T12:46:59;98823.19;;;5.24;66.81
75699;BME280;64313;51.018;13.742;2022-12-08T13:02:19;98811.78;;;5.09;66.98
75699;BME280;64313;51.018;13.742;2022-12-08T13:05:09;98806.47;;;5.09;67.31
75699;BME280;64313;51.018;13.742;2022-12-08T13:15:40;98789.88;;;5.15;67.53
75699;BME280;64313;51.018;13.742;2022-12-08T13:18:20;98797.59;;;5.16;68.12
75699;BME280;64313;51.018;13.742;2022-12-08T13:20:50;98798.25;;;5.18;67.25
75699;BME280;64313;51.018;13.742;2022-12-08T13:31:41;98778.06;;;5.17;66.76
75699;BME280;64313;51.018;13.742;2022-12-08T13:34:12;98776.78;;;5.13;66.50
75699;BME280;64313;51.018;13.742;2022-12-08T13:36:46;98781.28;;;5.13;67.26
75699;BME280;64313;51.018;13.742;2022-12-08T13:39:26;98783.94;;;5.13;66.93
75699;BME280;64313;51.018;13.742;2022-12-08T13:41:59;98774.69;;;5.09;67.07
75699;BME280;64313;51.018;13.742;2022-12-08T13:44:36;98777.34;;;5.09;67.35
75699;BME280;64313;51.018;13.742;2022-12-08T13:47:05;98776.75;;;5.07;67.29
75699;BME280;64313;51.018;13.742;2022-12-08T13:49:41;98781.19;;;5.06;67.36
75699;BME280;64313;51.018;13.742;2022-12-08T13:52:20;98784.69;;;5.07;67.23
75699;BME280;64313;51.018;13.742;2022-12-08T13:54:49;98790.34;;;5.04;67.34
75699;BME280;64313;51.018;13.742;2022-12-08T13:57:30;98786.44;;;4.99;66.80
75699;BME280;64313;51.018;13.742;2022-12-08T14:00:01;98788.44;;;4.97;67.67
75699;BME280;64313;51.018;13.742;2022-12-08T14:02:40;98791.47;;;4.94;67.56
75699;BME280;64313;51.018;13.742;2022-12-08T14:05:08;98791.00;;;4.91;67.58
75699;BME280;64313;51.018;13.742;2022-12-08T14:07:34;98794.19;;;4.86;67.84
75699;BME280;64313;51.018;13.742;2022-12-08T14:10:05;98797.88;;;4.85;67.82
75699;BME280;64313;51.018;13.742;2022-12-08T14:12:31;98793.59;;;4.84;68.08
75699;BME280;64313;51.018;13.742;2022-12-08T14:14:59;98795.59;;;4.82;67.90
75699;BME280;64313;51.018;13.742;2022-12-08T14:17:26;98790.03;;;4.77;68.05
75699;BME280;64313;51.018;13.742;2022-12-08T14:19:54;98796.69;;;4.73;67.80